sensor_id;sensor_type;location;lat;lon;timestamp;temperature;humidity
70076;DHT22;57446;51.056;3.712;2022-08-11T00:02:54;24.00;54.20
70076;DHT22;57446;51.056;3.712;2022-08-11T00:05:52;24.00;53.10
70076;DHT22;57446;51.056;3.712;2022-08-11T00:08:52;24.00;52.90
70076;DHT22;57446;51.056;3.712;2022-08-11T00:11:45;24.00;52.30
70076;DHT22;57446;51.056;3.712;2022-08-11T00:14:39;23.90;52.40
70076;DHT22;57446;51.056;3.712;2022-08-11T00:17:32;23.90;52.80
70076;DHT22;57446;51.056;3.712;2022-08-11T00:20:43;23.90;52.20
70076;DHT22;57446;51.056;3.712;2022-08-11T00:23:17;23.80;52.20
70076;DHT22;57446;51.056;3.712;2022-08-11T00:26:08;23.80;52.10
70076;DHT22;57446;51.056;3.712;2022-08-11T00:32:00;23.70;52.40
70076;DHT22;57446;51.056;3.712;2022-08-11T00:34:50;23.70;51.80
70076;DHT22;57446;51.056;3.712;2022-08-11T00:37:41;23.70;52.30
70076;DHT22;57446;51.056;3.712;2022-08-11T01:02:48;23.60;52.10
70076;DHT22;57446;51.056;3.712;2022-08-11T01:05:42;23.50;52.00
70076;DHT22;57446;51.056;3.712;2022-08-11T01:12:08;23.50;52.20
70076;DHT22;57446;51.056;3.712;2022-08-11T01:21:35;23.50;51.40
70076;DHT22;57446;51.056;3.712;2022-08-11T01:31:22;23.40;51.40
70076;DHT22;57446;51.056;3.712;2022-08-11T02:12:56;22.70;53.40
70076;DHT22;57446;51.056;3.712;2022-08-11T02:15:54;22.70;53.30
70076;DHT22;57446;51.056;3.712;2022-08-11T02:18:48;22.70;53.50
70076;DHT22;57446;51.056;3.712;2022-08-11T02:22:00;22.70;53.70
70076;DHT22;57446;51.056;3.712;2022-08-11T02:35:11;22.40;53.70
70076;DHT22;57446;51.056;3.712;2022-08-11T02:41:20;22.40;53.50
70076;DHT22;57446;51.056;3.712;2022-08-11T02:47:47;22.30;53.60
70076;DHT22;57446;51.056;3.712;2022-08-11T03:03:52;22.30;54.30
70076;DHT22;57446;51.056;3.712;2022-08-11T03:09:49;22.40;53.10
70076;DHT22;57446;51.056;3.712;2022-08-11T03:12:17;22.40;52.80
70076;DHT22;57446;51.056;3.712;2022-08-11T03:15:27;22.30;52.90
70076;DHT22;57446;51.056;3.712;2022-08-11T03:34:19;22.10;53.40
70076;DHT22;57446;51.056;3.712;2022-08-11T03:40:49;22.10;53.20
70076;DHT22;57446;51.056;3.712;2022-08-11T04:12:11;21.70;54.00
70076;DHT22;57446;51.056;3.712;2022-08-11T04:34:21;21.40;54.10
70076;DHT22;57446;51.056;3.712;2022-08-11T05:01:53;21.40;54.70
70076;DHT22;57446;51.056;3.712;2022-08-11T05:04:57;21.40;54.30
70076;DHT22;57446;51.056;3.712;2022-08-11T05:18:15;21.30;54.50
70076;DHT22;57446;51.056;3.712;2022-08-11T05:21:21;21.30;54.30
70076;DHT22;57446;51.056;3.712;2022-08-11T05:30:55;21.30;54.40
70076;DHT22;57446;51.056;3.712;2022-08-11T05:34:26;21.30;54.30
70076;DHT22;57446;51.056;3.712;2022-08-11T05:37:36;21.30;54.30
70076;DHT22;57446;51.056;3.712;2022-08-11T05:40:26;21.30;54.50
70076;DHT22;57446;51.056;3.712;2022-08-11T05:43:38;21.30;54.20
70076;DHT22;57446;51.056;3.712;2022-08-11T05:53:41;21.20;54.40
70076;DHT22;57446;51.056;3.712;2022-08-11T06:02:59;21.30;53.90
70076;DHT22;57446;51.056;3.712;2022-08-11T06:08:35;21.40;54.20
70076;DHT22;57446;51.056;3.712;2022-08-11T06:14:31;21.60;53.60
70076;DHT22;57446;51.056;3.712;2022-08-11T06:20:27;21.60;53.90
70076;DHT22;57446;51.056;3.712;2022-08-11T06:23:15;21.60;53.60
70076;DHT22;57446;51.056;3.712;2022-08-11T06:29:11;21.30;54.50
70076;DHT22;57446;51.056;3.712;2022-08-11T06:32:01;21.30;54.80
70076;DHT22;57446;51.056;3.712;2022-08-11T06:38:22;21.30;54.60
70076;DHT22;57446;51.056;3.712;2022-08-11T06:41:17;21.40;54.40
70076;DHT22;57446;51.056;3.712;2022-08-11T06:47:30;21.60;53.90
70076;DHT22;57446;51.056;3.712;2022-08-11T06:50:20;21.50;53.80
70076;DHT22;57446;51.056;3.712;2022-08-11T07:13:49;22.20;52.20
70076;DHT22;57446;51.056;3.712;2022-08-11T07:22:58;22.30;51.60
70076;DHT22;57446;51.056;3.712;2022-08-11T07:26:15;22.40;51.00
70076;DHT22;57446;51.056;3.712;2022-08-11T07:29:12;22.50;51.40
70076;DHT22;57446;51.056;3.712;2022-08-11T07:32:30;22.70;51.40
70076;DHT22;57446;51.056;3.712;2022-08-11T07:35:27;22.70;50.60
70076;DHT22;57446;51.056;3.712;2022-08-11T07:38:22;22.80;50.80
70076;DHT22;57446;51.056;3.712;2022-08-11T07:41:40;23.00;50.30
70076;DHT22;57446;51.056;3.712;2022-08-11T07:44:15;23.10;50.20
70076;DHT22;57446;51.056;3.712;2022-08-11T07:47:00;23.30;50.30
70076;DHT22;57446;51.056;3.712;2022-08-11T07:53:21;23.80;48.10
70076;DHT22;57446;51.056;3.712;2022-08-11T07:56:13;24.10;46.90
70076;DHT22;57446;51.056;3.712;2022-08-11T07:59:02;24.20;46.50
70076;DHT22;57446;51.056;3.712;2022-08-11T08:02:31;24.40;46.30
70076;DHT22;57446;51.056;3.712;2022-08-11T08:05:37;24.40;45.50
70076;DHT22;57446;51.056;3.712;2022-08-11T08:08:46;24.50;45.40
70076;DHT22;57446;51.056;3.712;2022-08-11T08:11:51;24.60;44.50
70076;DHT22;57446;51.056;3.712;2022-08-11T08:14:55;24.60;45.00
70076;DHT22;57446;51.056;3.712;2022-08-11T08:20:51;25.10;44.00
70076;DHT22;57446;51.056;3.712;2022-08-11T08:23:54;25.40;43.60
70076;DHT22;57446;51.056;3.712;2022-08-11T08:26:33;25.50;42.20
70076;DHT22;57446;51.056;3.712;2022-08-11T08:29:42;25.80;42.10
70076;DHT22;57446;51.056;3.712;2022-08-11T08:33:00;26.10;41.40
70076;DHT22;57446;51.056;3.712;2022-08-11T08:35:44;27.10;39.60
70076;DHT22;57446;51.056;3.712;2022-08-11T08:38:28;28.80;36.00
70076;DHT22;57446;51.056;3.712;2022-08-11T08:41:22;31.20;32.50
70076;DHT22;57446;51.056;3.712;2022-08-11T08:44:15;33.50;28.50
70076;DHT22;57446;51.056;3.712;2022-08-11T08:47:04;34.60;27.20
70076;DHT22;57446;51.056;3.712;2022-08-11T08:49:58;35.90;25.70
70076;DHT22;57446;51.056;3.712;2022-08-11T08:52:44;36.90;23.40
70076;DHT22;57446;51.056;3.712;2022-08-11T08:55:37;39.00;22.50
70076;DHT22;57446;51.056;3.712;2022-08-11T08:58:21;39.80;20.80
70076;DHT22;57446;51.056;3.712;2022-08-11T09:01:15;40.30;20.80
70076;DHT22;57446;51.056;3.712;2022-08-11T09:04:09;40.80;20.00
70076;DHT22;57446;51.056;3.712;2022-08-11T09:07:09;41.20;19.40
70076;DHT22;57446;51.056;3.712;2022-08-11T09:09:49;39.90;20.20
70076;DHT22;57446;51.056;3.712;2022-08-11T09:12:40;41.00;19.80
70076;DHT22;57446;51.056;3.712;2022-08-11T09:15:29;41.40;19.00
70076;DHT22;57446;51.056;3.712;2022-08-11T09:18:26;42.00;19.20
70076;DHT22;57446;51.056;3.712;2022-08-11T09:21:13;41.40;19.00
70076;DHT22;57446;51.056;3.712;2022-08-11T09:24:00;43.10;18.20
70076;DHT22;57446;51.056;3.712;2022-08-11T09:27:11;43.90;17.50
70076;DHT22;57446;51.056;3.712;2022-08-11T09:30:05;44.50;16.50
70076;DHT22;57446;51.056;3.712;2022-08-11T09:32:47;44.70;16.70
70076;DHT22;57446;51.056;3.712;2022-08-11T09:35:49;44.40;16.10
70076;DHT22;57446;51.056;3.712;2022-08-11T09:38:28;43.90;16.80
70076;DHT22;57446;51.056;3.712;2022-08-11T09:41:32;44.80;16.30
70076;DHT22;57446;51.056;3.712;2022-08-11T09:44:26;44.60;16.00
70076;DHT22;57446;51.056;3.712;2022-08-11T09:47:31;44.50;15.90
70076;DHT22;57446;51.056;3.712;2022-08-11T09:50:24;40.20;18.50
70076;DHT22;57446;51.056;3.712;2022-08-11T09:53:16;40.30;19.20
70076;DHT22;57446;51.056;3.712;2022-08-11T09:56:02;39.30;19.40
70076;DHT22;57446;51.056;3.712;2022-08-11T09:59:10;37.30;21.80
70076;DHT22;57446;51.056;3.712;2022-08-11T10:01:46;37.80;22.00
70076;DHT22;57446;51.056;3.712;2022-08-11T10:04:49;38.50;20.00
70076;DHT22;57446;51.056;3.712;2022-08-11T10:07:33;37.80;21.00
70076;DHT22;57446;51.056;3.712;2022-08-11T10:10:22;39.10;20.00
70076;DHT22;57446;51.056;3.712;2022-08-11T10:13:16;40.80;18.60
70076;DHT22;57446;51.056;3.712;2022-08-11T10:16:05;40.50;17.60
70076;DHT22;57446;51.056;3.712;2022-08-11T10:18:54;41.10;18.10
70076;DHT22;57446;51.056;3.712;2022-08-11T10:21:46;41.00;18.50
70076;DHT22;57446;51.056;3.712;2022-08-11T10:24:51;40.00;17.50
70076;DHT22;57446;51.056;3.712;2022-08-11T10:27:57;38.60;19.50
70076;DHT22;57446;51.056;3.712;2022-08-11T10:30:58;37.50;20.20
70076;DHT22;57446;51.056;3.712;2022-08-11T10:33:56;37.80;20.00
70076;DHT22;57446;51.056;3.712;2022-08-11T10:37:01;38.50;19.90
70076;DHT22;57446;51.056;3.712;2022-08-11T10:39:45;39.10;19.60
70076;DHT22;57446;51.056;3.712;2022-08-11T10:42:48;39.30;18.40
70076;DHT22;57446;51.056;3.712;2022-08-11T10:45:43;38.60;19.90
70076;DHT22;57446;51.056;3.712;2022-08-11T10:48:47;39.80;18.30
70076;DHT22;57446;51.056;3.712;2022-08-11T10:51:36;41.60;17.30
70076;DHT22;57446;51.056;3.712;2022-08-11T10:54:43;41.70;16.40
70076;DHT22;57446;51.056;3.712;2022-08-11T10:57:56;39.20;18.00
70076;DHT22;57446;51.056;3.712;2022-08-11T11:01:03;38.70;18.20
70076;DHT22;57446;51.056;3.712;2022-08-11T11:03:54;38.20;19.30
70076;DHT22;57446;51.056;3.712;2022-08-11T11:07:20;40.00;18.30
70076;DHT22;57446;51.056;3.712;2022-08-11T11:10:05;40.10;17.70
70076;DHT22;57446;51.056;3.712;2022-08-11T11:12:55;40.30;18.50
70076;DHT22;57446;51.056;3.712;2022-08-11T11:15:47;41.30;17.60
70076;DHT22;57446;51.056;3.712;2022-08-11T11:18:52;42.70;16.60
70076;DHT22;57446;51.056;3.712;2022-08-11T11:21:38;43.10;15.40
70076;DHT22;57446;51.056;3.712;2022-08-11T11:24:32;44.70;14.60
70076;DHT22;57446;51.056;3.712;2022-08-11T11:27:29;45.30;14.30
70076;DHT22;57446;51.056;3.712;2022-08-11T11:30:19;44.30;14.20
70076;DHT22;57446;51.056;3.712;2022-08-11T11:36:06;46.50;14.20
70076;DHT22;57446;51.056;3.712;2022-08-11T11:38:51;45.90;13.60
70076;DHT22;57446;51.056;3.712;2022-08-11T11:41:53;41.30;16.20
70076;DHT22;57446;51.056;3.712;2022-08-11T11:44:38;41.90;17.00
70076;DHT22;57446;51.056;3.712;2022-08-11T11:47:24;43.40;15.80
70076;DHT22;57446;51.056;3.712;2022-08-11T11:50:13;45.30;14.50
70076;DHT22;57446;51.056;3.712;2022-08-11T11:59:25;42.00;17.30
70076;DHT22;57446;51.056;3.712;2022-08-11T12:02:30;45.10;15.00
70076;DHT22;57446;51.056;3.712;2022-08-11T12:05:18;46.50;13.70
70076;DHT22;57446;51.056;3.712;2022-08-11T12:08:06;47.70;13.90
70076;DHT22;57446;51.056;3.712;2022-08-11T12:11:05;45.80;13.40
70076;DHT22;57446;51.056;3.712;2022-08-11T12:14:10;43.30;15.50
70076;DHT22;57446;51.056;3.712;2022-08-11T12:17:01;42.70;15.80
70076;DHT22;57446;51.056;3.712;2022-08-11T12:19:51;45.20;15.10
70076;DHT22;57446;51.056;3.712;2022-08-11T12:22:41;47.00;13.80
70076;DHT22;57446;51.056;3.712;2022-08-11T12:25:48;47.00;13.90
70076;DHT22;57446;51.056;3.712;2022-08-11T12:29:02;48.30;13.30
70076;DHT22;57446;51.056;3.712;2022-08-11T12:31:44;48.80;12.90
70076;DHT22;57446;51.056;3.712;2022-08-11T12:34:37;48.50;12.60
70076;DHT22;57446;51.056;3.712;2022-08-11T12:37:24;47.90;13.30
70076;DHT22;57446;51.056;3.712;2022-08-11T12:40:18;48.20;13.00
70076;DHT22;57446;51.056;3.712;2022-08-11T12:43:26;47.00;12.90
70076;DHT22;57446;51.056;3.712;2022-08-11T12:46:35;46.60;14.10
70076;DHT22;57446;51.056;3.712;2022-08-11T12:49:27;46.90;13.80
70076;DHT22;57446;51.056;3.712;2022-08-11T12:52:34;44.40;13.80
70076;DHT22;57446;51.056;3.712;2022-08-11T12:55:26;39.40;17.50
70076;DHT22;57446;51.056;3.712;2022-08-11T12:58:23;37.60;18.50
70076;DHT22;57446;51.056;3.712;2022-08-11T13:01:12;37.10;19.60
70076;DHT22;57446;51.056;3.712;2022-08-11T13:04:15;36.10;19.40
70076;DHT22;57446;51.056;3.712;2022-08-11T13:07:19;35.20;20.60
70076;DHT22;57446;51.056;3.712;2022-08-11T13:10:09;35.00;20.70
70076;DHT22;57446;51.056;3.712;2022-08-11T13:12:58;35.20;20.60
70076;DHT22;57446;51.056;3.712;2022-08-11T13:15:46;35.50;20.50
70076;DHT22;57446;51.056;3.712;2022-08-11T13:18:34;35.70;20.80
70076;DHT22;57446;51.056;3.712;2022-08-11T13:21:25;35.60;20.20
70076;DHT22;57446;51.056;3.712;2022-08-11T13:24:21;35.40;20.40
70076;DHT22;57446;51.056;3.712;2022-08-11T13:27:11;35.40;20.90
70076;DHT22;57446;51.056;3.712;2022-08-11T13:29:59;35.20;21.00
70076;DHT22;57446;51.056;3.712;2022-08-11T13:33:04;35.30;21.20
70076;DHT22;57446;51.056;3.712;2022-08-11T13:35:53;35.10;21.90
70076;DHT22;57446;51.056;3.712;2022-08-11T13:38:56;35.10;21.20
70076;DHT22;57446;51.056;3.712;2022-08-11T13:41:40;35.00;20.80
70076;DHT22;57446;51.056;3.712;2022-08-11T13:44:30;35.10;21.10
70076;DHT22;57446;51.056;3.712;2022-08-11T13:47:26;34.90;21.60
70076;DHT22;57446;51.056;3.712;2022-08-11T13:50:19;34.90;20.90
70076;DHT22;57446;51.056;3.712;2022-08-11T13:53:02;35.00;21.40
70076;DHT22;57446;51.056;3.712;2022-08-11T13:55:53;35.20;21.10
70076;DHT22;57446;51.056;3.712;2022-08-11T13:58:42;35.00;20.70
70076;DHT22;57446;51.056;3.712;2022-08-11T14:01:32;34.60;21.10
70076;DHT22;57446;51.056;3.712;2022-08-11T14:04:42;34.80;21.50
70076;DHT22;57446;51.056;3.712;2022-08-11T14:07:13;34.90;21.50
70076;DHT22;57446;51.056;3.712;2022-08-11T14:10:08;35.00;21.30
70076;DHT22;57446;51.056;3.712;2022-08-11T14:13:06;35.00;21.10
70076;DHT22;57446;51.056;3.712;2022-08-11T14:16:15;34.30;21.30
70076;DHT22;57446;51.056;3.712;2022-08-11T14:19:09;33.60;21.90
70076;DHT22;57446;51.056;3.712;2022-08-11T14:22:11;33.40;22.70
70076;DHT22;57446;51.056;3.712;2022-08-11T14:25:04;33.50;22.90
70076;DHT22;57446;51.056;3.712;2022-08-11T14:27:48;33.60;22.30
70076;DHT22;57446;51.056;3.712;2022-08-11T14:30:35;33.80;21.80
70076;DHT22;57446;51.056;3.712;2022-08-11T14:33:44;34.10;21.60
70076;DHT22;57446;51.056;3.712;2022-08-11T14:36:45;34.40;21.80
70076;DHT22;57446;51.056;3.712;2022-08-11T14:39:33;34.40;21.30
70076;DHT22;57446;51.056;3.712;2022-08-11T14:42:25;34.20;21.90
70076;DHT22;57446;51.056;3.712;2022-08-11T14:45:30;34.20;22.40
70076;DHT22;57446;51.056;3.712;2022-08-11T14:48:39;34.10;22.50
70076;DHT22;57446;51.056;3.712;2022-08-11T14:51:27;34.30;22.20
70076;DHT22;57446;51.056;3.712;2022-08-11T14:54:15;34.40;21.90
70076;DHT22;57446;51.056;3.712;2022-08-11T14:57:21;34.20;22.00
70076;DHT22;57446;51.056;3.712;2022-08-11T15:00:17;34.20;22.10
70076;DHT22;57446;51.056;3.712;2022-08-11T15:03:03;34.30;22.10
70076;DHT22;57446;51.056;3.712;2022-08-11T15:06:02;34.50;21.50
70076;DHT22;57446;51.056;3.712;2022-08-11T15:08:48;34.70;20.90
70076;DHT22;57446;51.056;3.712;2022-08-11T15:11:43;34.80;20.90
70076;DHT22;57446;51.056;3.712;2022-08-11T15:18:04;34.80;21.10
70076;DHT22;57446;51.056;3.712;2022-08-11T15:20:48;34.90;21.40
70076;DHT22;57446;51.056;3.712;2022-08-11T15:24:00;34.50;20.90
70076;DHT22;57446;51.056;3.712;2022-08-11T15:27:08;34.60;21.10
70076;DHT22;57446;51.056;3.712;2022-08-11T15:30:11;34.70;21.40
70076;DHT22;57446;51.056;3.712;2022-08-11T15:33:16;34.70;21.40
70076;DHT22;57446;51.056;3.712;2022-08-11T15:36:23;34.80;21.70
70076;DHT22;57446;51.056;3.712;2022-08-11T15:39:37;35.10;21.20
70076;DHT22;57446;51.056;3.712;2022-08-11T15:42:26;34.90;21.30
70076;DHT22;57446;51.056;3.712;2022-08-11T15:45:40;34.90;21.00
70076;DHT22;57446;51.056;3.712;2022-08-11T15:51:47;34.60;21.10
70076;DHT22;57446;51.056;3.712;2022-08-11T15:54:29;33.90;21.00
70076;DHT22;57446;51.056;3.712;2022-08-11T15:57:15;33.40;21.80
70076;DHT22;57446;51.056;3.712;2022-08-11T16:00:24;33.20;22.30
70076;DHT22;57446;51.056;3.712;2022-08-11T16:03:55;33.40;22.30
70076;DHT22;57446;51.056;3.712;2022-08-11T16:16:18;33.50;23.20
70076;DHT22;57446;51.056;3.712;2022-08-11T16:19:12;33.50;23.10
70076;DHT22;57446;51.056;3.712;2022-08-11T16:22:07;33.50;22.40
70076;DHT22;57446;51.056;3.712;2022-08-11T16:25:15;33.40;22.60
70076;DHT22;57446;51.056;3.712;2022-08-11T16:27:49;33.40;23.30
70076;DHT22;57446;51.056;3.712;2022-08-11T16:30:38;33.20;23.50
70076;DHT22;57446;51.056;3.712;2022-08-11T16:33:38;33.30;22.60
70076;DHT22;57446;51.056;3.712;2022-08-11T16:36:40;33.40;22.50
70076;DHT22;57446;51.056;3.712;2022-08-11T16:39:54;33.50;22.80
70076;DHT22;57446;51.056;3.712;2022-08-11T16:42:42;33.60;22.40
70076;DHT22;57446;51.056;3.712;2022-08-11T16:51:55;33.70;22.30
70076;DHT22;57446;51.056;3.712;2022-08-11T17:01:02;33.50;22.70
70076;DHT22;57446;51.056;3.712;2022-08-11T17:03:55;33.30;23.00
70076;DHT22;57446;51.056;3.712;2022-08-11T17:10:55;33.50;22.80
70076;DHT22;57446;51.056;3.712;2022-08-11T17:14:02;33.50;22.50
70076;DHT22;57446;51.056;3.712;2022-08-11T17:17:32;33.30;23.10
70076;DHT22;57446;51.056;3.712;2022-08-11T17:19:56;33.30;23.00
70076;DHT22;57446;51.056;3.712;2022-08-11T17:22:35;33.20;23.20
70076;DHT22;57446;51.056;3.712;2022-08-11T17:25:42;33.00;23.60
70076;DHT22;57446;51.056;3.712;2022-08-11T17:31:50;33.10;23.50
70076;DHT22;57446;51.056;3.712;2022-08-11T17:35:13;33.00;23.10
70076;DHT22;57446;51.056;3.712;2022-08-11T17:38:26;33.00;23.30
70076;DHT22;57446;51.056;3.712;2022-08-11T17:46:50;32.70;24.00
70076;DHT22;57446;51.056;3.712;2022-08-11T17:56:19;32.40;23.70
70076;DHT22;57446;51.056;3.712;2022-08-11T18:00:13;32.30;23.80
70076;DHT22;57446;51.056;3.712;2022-08-11T18:02:43;32.20;23.90
70076;DHT22;57446;51.056;3.712;2022-08-11T18:05:53;32.10;24.00
70076;DHT22;57446;51.056;3.712;2022-08-11T18:08:53;32.10;23.90
70076;DHT22;57446;51.056;3.712;2022-08-11T18:22:35;31.60;25.00
70076;DHT22;57446;51.056;3.712;2022-08-11T18:25:30;31.50;25.10
70076;DHT22;57446;51.056;3.712;2022-08-11T18:32:19;31.50;25.20
70076;DHT22;57446;51.056;3.712;2022-08-11T18:35:43;31.40;25.30
70076;DHT22;57446;51.056;3.712;2022-08-11T18:39:00;31.30;25.50
70076;DHT22;57446;51.056;3.712;2022-08-11T18:48:45;31.10;26.00
70076;DHT22;57446;51.056;3.712;2022-08-11T18:58:58;30.80;26.90
70076;DHT22;57446;51.056;3.712;2022-08-11T19:02:16;30.70;26.90
70076;DHT22;57446;51.056;3.712;2022-08-11T19:05:29;30.60;27.00
70076;DHT22;57446;51.056;3.712;2022-08-11T19:15:37;30.30;27.70
70076;DHT22;57446;51.056;3.712;2022-08-11T19:22:30;30.20;27.70
70076;DHT22;57446;51.056;3.712;2022-08-11T19:25:45;30.10;27.80
70076;DHT22;57446;51.056;3.712;2022-08-11T19:28:48;30.00;28.00
70076;DHT22;57446;51.056;3.712;2022-08-11T19:32:13;30.00;28.30
70076;DHT22;57446;51.056;3.712;2022-08-11T19:38:46;29.80;28.70
70076;DHT22;57446;51.056;3.712;2022-08-11T19:41:58;29.70;28.70
70076;DHT22;57446;51.056;3.712;2022-08-11T19:45:02;29.70;28.70
70076;DHT22;57446;51.056;3.712;2022-08-11T19:48:08;29.60;29.10
70076;DHT22;57446;51.056;3.712;2022-08-11T19:54:58;29.40;29.30
70076;DHT22;57446;51.056;3.712;2022-08-11T20:05:13;29.20;29.70
70076;DHT22;57446;51.056;3.712;2022-08-11T20:19:03;29.00;30.40
70076;DHT22;57446;51.056;3.712;2022-08-11T20:22:17;28.90;30.50
70076;DHT22;57446;51.056;3.712;2022-08-11T20:28:28;28.60;31.10
70076;DHT22;57446;51.056;3.712;2022-08-11T20:31:35;28.50;31.10
70076;DHT22;57446;51.056;3.712;2022-08-11T20:34:41;28.40;31.10
70076;DHT22;57446;51.056;3.712;2022-08-11T20:38:01;28.40;31.40
70076;DHT22;57446;51.056;3.712;2022-08-11T20:40:55;28.30;31.50
70076;DHT22;57446;51.056;3.712;2022-08-11T20:44:01;28.20;31.60
70076;DHT22;57446;51.056;3.712;2022-08-11T20:47:27;28.20;31.80
70076;DHT22;57446;51.056;3.712;2022-08-11T20:50:31;28.10;31.90
70076;DHT22;57446;51.056;3.712;2022-08-11T20:53:49;28.00;31.60
70076;DHT22;57446;51.056;3.712;2022-08-11T20:56:55;28.00;32.20
70076;DHT22;57446;51.056;3.712;2022-08-11T20:59:51;27.90;31.80
70076;DHT22;57446;51.056;3.712;2022-08-11T21:02:56;27.80;32.20
70076;DHT22;57446;51.056;3.712;2022-08-11T21:06:10;27.70;32.20
70076;DHT22;57446;51.056;3.712;2022-08-11T21:09:09;27.80;32.00
70076;DHT22;57446;51.056;3.712;2022-08-11T21:18:49;27.80;32.00
70076;DHT22;57446;51.056;3.712;2022-08-11T21:21:50;27.80;32.10
70076;DHT22;57446;51.056;3.712;2022-08-11T21:24:57;27.80;31.90
70076;DHT22;57446;51.056;3.712;2022-08-11T21:28:10;27.60;32.10
70076;DHT22;57446;51.056;3.712;2022-08-11T21:31:19;27.60;32.30
70076;DHT22;57446;51.056;3.712;2022-08-11T21:34:35;27.50;32.60
70076;DHT22;57446;51.056;3.712;2022-08-11T21:37:50;27.40;32.60
70076;DHT22;57446;51.056;3.712;2022-08-11T21:40:55;27.30;32.80
70076;DHT22;57446;51.056;3.712;2022-08-11T21:49:25;27.00;34.60
70076;DHT22;57446;51.056;3.712;2022-08-11T21:52:34;27.00;35.10
70076;DHT22;57446;51.056;3.712;2022-08-11T21:55:46;27.00;35.60
70076;DHT22;57446;51.056;3.712;2022-08-11T21:58:48;26.90;36.00
70076;DHT22;57446;51.056;3.712;2022-08-11T22:01:55;26.90;36.20
70076;DHT22;57446;51.056;3.712;2022-08-11T22:11:30;26.80;37.20
70076;DHT22;57446;51.056;3.712;2022-08-11T22:14:38;26.70;37.50
70076;DHT22;57446;51.056;3.712;2022-08-11T22:17:41;26.60;37.90
70076;DHT22;57446;51.056;3.712;2022-08-11T22:20:50;26.60;38.30
70076;DHT22;57446;51.056;3.712;2022-08-11T22:23:57;26.50;38.50
70076;DHT22;57446;51.056;3.712;2022-08-11T22:27:09;26.50;38.60
70076;DHT22;57446;51.056;3.712;2022-08-11T22:36:49;26.40;39.70
70076;DHT22;57446;51.056;3.712;2022-08-11T22:43:54;26.30;40.10
70076;DHT22;57446;51.056;3.712;2022-08-11T22:47:13;26.20;40.30
70076;DHT22;57446;51.056;3.712;2022-08-11T22:50:06;26.20;40.50
70076;DHT22;57446;51.056;3.712;2022-08-11T22:53:09;26.20;40.60
70076;DHT22;57446;51.056;3.712;2022-08-11T22:56:15;26.10;40.80
70076;DHT22;57446;51.056;3.712;2022-08-11T22:59:21;26.00;40.90
70076;DHT22;57446;51.056;3.712;2022-08-11T23:02:30;26.00;41.50
70076;DHT22;57446;51.056;3.712;2022-08-11T23:05:41;25.90;41.60
70076;DHT22;57446;51.056;3.712;2022-08-11T23:08:48;25.90;42.10
70076;DHT22;57446;51.056;3.712;2022-08-11T23:12:04;25.90;42.20
70076;DHT22;57446;51.056;3.712;2022-08-11T23:15:12;25.80;42.50
70076;DHT22;57446;51.056;3.712;2022-08-11T23:18:22;25.80;42.70
70076;DHT22;57446;51.056;3.712;2022-08-11T23:21:29;25.80;42.60
70076;DHT22;57446;51.056;3.712;2022-08-11T23:27:39;25.70;42.90
70076;DHT22;57446;51.056;3.712;2022-08-11T23:34:07;25.60;43.20
70076;DHT22;57446;51.056;3.712;2022-08-11T23:37:07;25.60;43.00
70076;DHT22;57446;51.056;3.712;2022-08-11T23:40:14;25.50;42.70
70076;DHT22;57446;51.056;3.712;2022-08-11T23:43:25;25.50;42.60
70076;DHT22;57446;51.056;3.712;2022-08-11T23:46:29;25.50;42.50
70076;DHT22;57446;51.056;3.712;2022-08-11T23:49:52;25.40;42.80
70076;DHT22;57446;51.056;3.712;2022-08-11T23:53:01;25.30;42.70
70076;DHT22;57446;51.056;3.712;2022-08-11T23:56:05;25.30;43.10
70076;DHT22;57446;51.056;3.712;2022-08-11T23:59:44;25.30;43.20
